Relevés horaires Laegern (Suisse)


Relevés horaires à Laegern - Mercredi 23 Juin 2021
Heure UTC1 Température [°C] Vent [km/h] Hum. [%] Pres.4 [hPa] Visi. [Km] Nébu. [octa] Préc.5 [mm] Cond.
2m. Res. Ros. Dir.2 Vit. Moy. Raf.3
23:00 12.2 12.2 12.1 S 0.0 -- 33.3 99 850(1.9/3h) -- -- -- --
22:00 12.4 12.4 12.1 S 0.0 -- 22.2 98 850(3.4/3h) -- -- -- --
21:00 13.2 13.2 11.0 NNO 0.0 -- 50.0 87 850(4.0/3h) -- -- -- --
20:00 12.3 12.3 11.6 NO 0.0 -- 50.0 95 850(2.0/3h) -- -- -- --
19:00 13.8 13.8 13.1 SO 0.0 -- 46.3 96 850(-0.1/3h) -- -- -- --
18:00 16.7 16.7 12.9 N 0.0 -- 35.2 78 850(-1.1/3h) -- -- -- --
17:00 19.0 19.0 13.5 NNE 0.0 -- 16.7 70 850(-0.9/3h) -- -- -- --
16:00 19.6 19.6 13.1 NE 0.0 -- 16.7 66 850(-1.1/3h) -- -- -- --
15:00 19.9 19.9 13.4 N 0.0 -- 18.5 66 850(-1.0/3h) -- -- -- --
14:00 19.8 19.8 12.7 NE 0.0 -- 18.5 64 850(-0.7/3h) -- -- -- --
13:00 19.3 19.3 12.4 NNE 0.0 -- 18.5 64 850(0.0/3h) -- -- -- --
12:00 18.7 18.7 12.5 NNE 0.0 -- 25.9 67 850(-0.3/3h) -- -- -- --
11:00 18.5 18.5 13.6 N 0.0 -- 16.7 73 850(-0.2/3h) -- -- -- --
10:00 16.8 16.8 12.3 NE 0.0 -- 18.5 75 850(-0.1/3h) -- -- -- --
09:00 15.5 15.5 13.7 N 0.0 -- 25.9 89 850(0.5/3h) -- -- -- --
08:00 14.8 14.8 13.4 NNE 0.0 -- 24.1 91 850(0.7/3h) -- -- -- --
07:00 13.8 13.8 13.6 N 0.0 -- 25.9 99 850(0.8/3h) -- -- -- --
06:00 13.4 13.4 12.6 N 0.0 -- 29.6 95 850(0.7/3h) -- -- -- --
05:00 13.4 13.4 12.2 NNO 0.0 -- 16.7 92 850(1.0/3h) -- -- -- --
04:00 12.8 12.8 12.6 ONO 0.0 -- 16.7 99 850(-0.5/3h) -- -- -- --
03:00 12.9 12.9 12.0 N 0.0 -- 29.6 94 850(-0.7/3h) -- -- -- --
02:00 16.9 16.9 7.1 E 0.0 -- 27.8 52 850(-0.8/3h) -- -- -- --
01:00 13.2 13.2 12.8 SSO 0.0 -- 29.6 97 850(0.6/3h) -- -- -- --
00:00 13.6 13.6 13.4 SSO 0.0 -- 31.5 99 850(0.5/3h) -- -- -- --

1 Coordinated Universal Time. Actuellement il est 14:00 locale et 12:00 UTC.

2 Le vent souffle depuis la direction indiquée vers la direction oposée.

3 Les rafales max. sont disponible 40 min après l'heure du relevé.

4 Pour les stations d'altitude (plus de 600m) le géopotentiel du niveau le plus proche de la pression obligatoire est indiqué.

5 Les stations disposant d'un diffuseur peuvent indiquer "trace". Cela signifie que des précipitations ont touchés le sol mais que la quantité est inférieure à 0.1 mm.

Copyright

Les données affichées sur cette page sont la propriété exclusive de Météo Suisse.

Récapitulatif de la journée
Température [°C] Vent [km/h] Ensoleillement4 [h] Precipitations totale5 [mm] Pression [Hpa]
Min1 Max.2 Moy.3 Max. Min Max.
12.6 20.1 0 50.0 4 h 6 min 0 850.0 850.0

1 Température minimale relevée entre 18:00 UTC la veille et 18:00 UTC le jour donné.

2 Température maximale relevée entre 06:00 UTC le jour donné et 06:00 UTC le lendemain.

3 Vent moyen de la journée basé sur les relevés horaires.

4 Ensoleillement en heures relevé entre 06:00 UTC la veille et 06:00 UTC le jour donné.

5 Précipitations totales tombées entre 06:00 UTC la jour donné et 06:00 UTC le lendemain.

Graphiques horaires